Time;durP1;ratioP1;P1;durP2;ratioP2;P2;SDS_P1;SDS_P2;PMS_P1;PMS_P2;Temp;Humidity;BMP_temperature;BMP_pressure;BME280_temperature;BME280_humidity;BME280_pressure;Samples;Min_cycle;Max_cycle;Signal;HPM_P1;HPM_P2
2021/05/18 00:00:20;;;;;;;2.57;2.37;;;9.50;99.90;;;;;;499985;237;27769;-73
2021/05/18 00:02:21;;;;;;;2.37;2.27;;;9.50;99.90;;;;;;499972;237;27539;-74
2021/05/18 00:04:23;;;;;;;2.50;2.30;;;9.50;99.90;;;;;;499983;237;27998;-73
2021/05/18 00:06:24;;;;;;;2.97;2.67;;;9.50;99.90;;;;;;499994;237;27966;-73
2021/05/18 00:08:26;;;;;;;3.20;2.53;;;9.50;99.90;;;;;;499991;237;27821;-74
2021/05/18 00:12:46;;;;;;;2.47;2.27;;;9.50;99.90;;;;;;499920;238;28436;-73
2021/05/18 00:14:47;;;;;;;3.07;2.87;;;9.50;99.90;;;;;;499933;238;28403;-73
2021/05/18 00:16:48;;;;;;;2.97;2.77;;;9.50;99.90;;;;;;499930;237;28365;-73
2021/05/18 00:18:49;;;;;;;2.87;2.67;;;9.50;99.90;;;;;;499989;237;28748;-74
2021/05/18 00:20:51;;;;;;;2.47;2.27;;;9.50;99.90;;;;;;499918;238;28291;-73
2021/05/18 00:22:52;;;;;;;2.90;2.70;;;9.50;99.90;;;;;;499938;237;27560;-74
2021/05/18 00:24:53;;;;;;;3.93;3.37;;;9.50;99.90;;;;;;499930;237;27757;-73
2021/05/18 00:26:55;;;;;;;3.73;3.30;;;9.50;99.90;;;;;;499933;237;27822;-73
2021/05/18 00:28:56;;;;;;;3.53;3.23;;;9.50;99.90;;;;;;499932;237;27880;-73
2021/05/18 00:30:57;;;;;;;3.37;3.10;;;9.50;99.90;;;;;;499921;237;27813;-73
2021/05/18 00:32:58;;;;;;;2.90;2.63;;;9.50;99.90;;;;;;499931;238;28007;-74
2021/05/18 00:34:59;;;;;;;3.37;3.07;;;9.60;99.90;;;;;;499935;237;27862;-74
2021/05/18 00:37:01;;;;;;;3.20;2.73;;;9.60;99.90;;;;;;499940;237;27680;-74
2021/05/18 00:39:02;;;;;;;3.20;2.90;;;9.60;99.90;;;;;;499976;237;27445;-73
2021/05/18 00:41:03;;;;;;;4.40;3.43;;;9.60;99.90;;;;;;500031;237;27702;-74
2021/05/18 00:43:04;;;;;;;2.77;2.57;;;9.60;99.90;;;;;;499935;237;27582;-74
2021/05/18 00:45:06;;;;;;;3.17;2.87;;;9.60;99.90;;;;;;499927;237;27851;-74
2021/05/18 00:47:07;;;;;;;5.90;3.33;;;9.60;99.90;;;;;;499934;237;27666;-73
2021/05/18 00:49:08;;;;;;;4.00;3.60;;;9.60;99.90;;;;;;499922;237;27655;-74
2021/05/18 00:51:09;;;;;;;2.93;2.73;;;9.60;99.90;;;;;;499936;237;28384;-73
2021/05/18 00:53:11;;;;;;;3.73;3.20;;;9.60;99.90;;;;;;499917;237;28359;-74
2021/05/18 00:55:31;;;;;;;4.27;3.53;;;9.60;99.90;;;;;;499898;238;28241;-73
2021/05/18 00:59:41;;;;;;;4.60;3.50;;;9.70;99.90;;;;;;499917;238;28316;-73
2021/05/18 01:01:42;;;;;;;4.00;3.47;;;9.70;99.90;;;;;;499929;237;28264;-73
2021/05/18 01:03:43;;;;;;;2.93;2.57;;;9.60;99.90;;;;;;499936;237;27806;-73
2021/05/18 01:08:04;;;;;;;2.50;2.30;;;9.60;99.90;;;;;;499922;238;27912;-73
2021/05/18 01:10:05;;;;;;;2.70;2.50;;;9.60;99.90;;;;;;499914;238;27931;-74
2021/05/18 01:12:07;;;;;;;3.13;2.47;;;9.60;99.90;;;;;;499930;237;27805;-73
2021/05/18 01:14:11;;;;;;;8.60;2.50;;;9.60;99.90;;;;;;499926;237;27885;-74
2021/05/18 01:16:09;;;;;;;3.87;2.80;;;9.60;99.90;;;;;;499752;238;27546;-75
2021/05/18 01:18:10;;;;;;;3.93;2.63;;;9.60;99.90;;;;;;499917;237;27795;-73
2021/05/18 01:20:12;;;;;;;4.80;2.80;;;9.70;99.90;;;;;;499927;237;27563;-73
2021/05/18 01:22:13;;;;;;;4.13;3.10;;;9.60;99.90;;;;;;499927;237;27880;-73
2021/05/18 01:24:14;;;;;;;5.50;3.27;;;9.60;99.90;;;;;;499924;237;28343;-73
2021/05/18 01:26:15;;;;;;;3.30;2.63;;;9.60;99.90;;;;;;499966;237;28246;-73
2021/05/18 01:28:17;;;;;;;2.87;2.67;;;9.60;99.90;;;;;;499951;238;28245;-73
2021/05/18 01:30:18;;;;;;;3.00;2.80;;;9.60;99.90;;;;;;499918;237;28034;-74
2021/05/18 01:32:23;;;;;;;3.53;3.23;;;9.60;99.90;;;;;;499937;237;28455;-73
2021/05/18 01:34:20;;;;;;;3.53;3.00;;;9.60;99.90;;;;;;499695;238;28170;-73
2021/05/18 01:36:22;;;;;;;3.30;3.00;;;9.60;99.90;;;;;;499910;238;27773;-73
2021/05/18 01:38:28;;;;;;;4.37;3.00;;;9.60;99.90;;;;;;499928;237;27760;-73
2021/05/18 01:44:44;;;;;;;2.90;2.70;;;9.50;99.90;;;;;;499921;238;27794;-74
2021/05/18 01:46:46;;;;;;;4.30;2.77;;;9.50;99.90;;;;;;499913;238;27852;-73
2021/05/18 01:48:48;;;;;;;4.03;3.20;;;9.50;99.90;;;;;;499903;238;27907;-73
2021/05/18 01:50:48;;;;;;;4.47;3.43;;;9.50;99.90;;;;;;499887;237;28135;-73
2021/05/18 01:52:49;;;;;;;4.90;3.33;;;9.50;99.90;;;;;;499897;237;27812;-74
2021/05/18 01:54:52;;;;;;;5.23;3.23;;;9.40;99.90;;;;;;499935;237;27687;-73
2021/05/18 01:57:16;;;;;;;3.30;3.00;;;9.40;99.90;;;;;;499877;238;27905;-73
2021/05/18 01:58:56;;;;;;;4.40;4.00;;;9.50;99.90;;;;;;498820;238;28264;-74
2021/05/18 02:00:57;;;;;;;6.33;4.10;;;9.40;99.90;;;;;;499976;237;28258;-74
2021/05/18 02:02:59;;;;;;;3.83;3.20;;;9.40;99.90;;;;;;499999;238;28709;-73
2021/05/18 02:05:00;;;;;;;6.47;3.00;;;9.40;99.90;;;;;;499944;238;28275;-74
2021/05/18 02:07:01;;;;;;;4.00;3.00;;;9.40;99.90;;;;;;499991;237;28218;-73
2021/05/18 02:09:03;;;;;;;3.07;2.83;;;9.40;99.90;;;;;;499917;238;27812;-73
2021/05/18 02:11:03;;;;;;;4.70;3.17;;;9.40;99.90;;;;;;499893;237;27806;-74
2021/05/18 02:13:05;;;;;;;3.27;2.70;;;9.40;99.90;;;;;;499908;238;27710;-73
2021/05/18 02:15:34;;;;;;;3.57;3.27;;;9.40;99.90;;;;;;499892;238;27829;-73
2021/05/18 02:19:34;;;;;;;3.10;2.73;;;9.40;99.90;;;;;;499907;237;28360;-73
2021/05/18 02:21:53;;;;;;;4.10;2.80;;;9.30;99.90;;;;;;499313;238;28018;-74
2021/05/18 02:26:03;;;;;;;3.50;3.10;;;9.40;99.90;;;;;;500001;238;27868;-73
2021/05/18 02:28:04;;;;;;;2.67;2.50;;;9.40;99.90;;;;;;499907;237;27914;-73
2021/05/18 02:30:05;;;;;;;2.50;2.30;;;9.40;99.90;;;;;;499911;237;27804;-73
2021/05/18 02:32:06;;;;;;;3.10;2.80;;;9.30;99.90;;;;;;499993;237;27832;-73
2021/05/18 02:34:08;;;;;;;2.67;2.47;;;9.20;99.90;;;;;;499772;237;27687;-74
2021/05/18 02:36:09;;;;;;;2.70;2.50;;;9.20;99.90;;;;;;499960;237;27932;-73
2021/05/18 02:38:10;;;;;;;21.80;2.50;;;9.30;99.90;;;;;;499895;237;27823;-73
2021/05/18 02:40:15;;;;;;;2.03;1.90;;;9.30;99.90;;;;;;499909;237;27695;-73
2021/05/18 02:42:13;;;;;;;2.20;2.00;;;9.30;99.90;;;;;;499763;238;27790;-73
2021/05/18 02:44:31;;;;;;;3.33;2.50;;;9.30;99.90;;;;;;499911;237;27707;-74
2021/05/18 02:50:42;;;;;;;2.83;2.30;;;9.20;99.90;;;;;;499961;238;28309;-73
2021/05/18 02:52:43;;;;;;;2.63;2.43;;;9.20;99.90;;;;;;499901;237;27804;-73
2021/05/18 02:54:49;;;;;;;5.00;2.40;;;9.20;99.90;;;;;;499925;237;27554;-73
2021/05/18 02:56:53;;;;;;;4.27;2.37;;;9.10;99.90;;;;;;499765;238;27687;-73
2021/05/18 03:01:02;;;;;;;2.67;2.47;;;9.10;99.90;;;;;;499966;238;28255;-73
2021/05/18 03:03:04;;;;;;;2.30;2.00;;;9.10;99.90;;;;;;499947;237;28431;-74
2021/05/18 03:05:05;;;;;;;2.80;2.10;;;9.10;99.90;;;;;;499989;237;28194;-74
2021/05/18 03:07:06;;;;;;;2.30;2.10;;;9.10;99.90;;;;;;499956;238;27778;-73
2021/05/18 03:09:12;;;;;;;3.43;2.17;;;9.00;99.90;;;;;;499946;238;27830;-73
2021/05/18 03:11:12;;;;;;;2.30;2.00;;;9.00;99.90;;;;;;499840;238;27826;-73
2021/05/18 03:13:13;;;;;;;2.17;2.00;;;9.10;99.90;;;;;;499902;237;27768;-74
2021/05/18 03:15:14;;;;;;;2.60;2.40;;;9.00;99.90;;;;;;499921;237;27872;-73
2021/05/18 03:17:15;;;;;;;2.40;2.07;;;9.10;99.90;;;;;;499919;237;28355;-74
2021/05/18 03:19:17;;;;;;;2.00;1.90;;;9.10;99.90;;;;;;499894;237;28012;-74
2021/05/18 03:21:18;;;;;;;3.03;1.63;;;9.10;99.90;;;;;;499903;237;28314;-73
2021/05/18 03:23:19;;;;;;;2.17;1.97;;;9.00;99.90;;;;;;499909;237;28237;-74
2021/05/18 03:25:20;;;;;;;3.10;2.20;;;9.00;99.90;;;;;;499913;237;28258;-74
2021/05/18 03:27:24;;;;;;;3.07;1.97;;;9.00;99.90;;;;;;499903;237;27910;-73
2021/05/18 03:29:25;;;;;;;3.40;2.73;;;9.00;99.90;;;;;;499822;238;27897;-74
2021/05/18 03:34:44;;;;;;;2.13;1.93;;;9.00;99.90;;;;;;499901;238;27886;-74
2021/05/18 03:35:53;;;;;;;2.90;2.70;;;9.00;99.90;;;;;;498312;238;27793;-74
2021/05/18 03:37:57;;;;;;;4.50;3.10;;;9.10;99.90;;;;;;499928;237;27899;-73
2021/05/18 03:40:03;;;;;;;9.83;3.57;;;9.00;99.90;;;;;;499811;238;27926;-73
2021/05/18 03:42:02;;;;;;;4.87;3.50;;;9.00;99.90;;;;;;499589;238;27994;-73
2021/05/18 03:44:24;;;;;;;4.30;3.53;;;9.00;99.90;;;;;;499673;238;28013;-74
2021/05/18 03:48:40;;;;;;;4.50;3.50;;;9.00;99.90;;;;;;499957;237;28281;-74
2021/05/18 04:04:26;;;;;;;4.20;2.70;;;9.00;99.90;;;;;;499682;238;27861;-74
2021/05/18 04:11:49;;;;;;;2.53;2.30;;;9.10;99.90;;;;;;499973;238;27947;-74
2021/05/18 04:20:08;;;;;;;3.50;3.13;;;9.10;99.90;;;;;;499996;237;28622;-74
2021/05/18 04:22:19;;;;;;;4.27;2.83;;;9.10;99.90;;;;;;499172;238;27824;-74
2021/05/18 04:51:01;;;;;;;6.47;3.47;;;9.30;99.90;;;;;;499925;238;27985;-74
2021/05/18 04:59:27;;;;;;;6.30;3.60;;;9.40;99.90;;;;;;499958;238;27456;-74
2021/05/18 05:01:30;;;;;;;9.30;3.60;;;9.40;99.90;;;;;;499635;238;27862;-73
2021/05/18 05:07:52;;;;;;;6.50;4.00;;;9.40;99.90;;;;;;499972;238;27860;-73
2021/05/18 05:09:46;;;;;;;5.27;4.33;;;9.30;99.90;;;;;;499508;238;27889;-74
2021/05/18 05:14:14;;;;;;;5.37;4.67;;;9.30;99.90;;;;;;499955;238;27782;-74
2021/05/18 05:16:08;;;;;;;5.27;3.20;;;9.30;99.90;;;;;;499585;238;27447;-74
2021/05/18 05:18:09;;;;;;;4.50;2.70;;;9.30;99.90;;;;;;499976;238;27971;-74
2021/05/18 05:20:10;;;;;;;4.43;2.90;;;9.30;99.90;;;;;;499977;238;28114;-74
2021/05/18 05:22:13;;;;;;;4.23;2.50;;;9.30;99.90;;;;;;499978;237;27786;-74
2021/05/18 05:24:13;;;;;;;4.50;2.43;;;9.30;99.90;;;;;;499892;237;27822;-74
2021/05/18 05:26:14;;;;;;;2.77;2.47;;;9.30;99.90;;;;;;499979;237;27847;-74
2021/05/18 05:28:15;;;;;;;2.47;2.27;;;9.30;99.90;;;;;;499914;237;27811;-73
2021/05/18 05:30:17;;;;;;;2.50;2.30;;;9.30;99.90;;;;;;499910;237;28001;-73
2021/05/18 05:32:18;;;;;;;6.33;2.93;;;9.30;99.90;;;;;;497507;237;27583;-74
2021/05/18 05:34:19;;;;;;;3.83;2.40;;;9.30;99.90;;;;;;491311;239;27776;-74
2021/05/18 05:36:20;;;;;;;4.77;2.27;;;9.30;99.90;;;;;;488822;243;27808;-74
2021/05/18 05:38:23;;;;;;;3.13;1.97;;;9.30;99.90;;;;;;488932;243;28324;-74
2021/05/18 05:40:23;;;;;;;2.83;2.07;;;9.30;99.90;;;;;;488802;243;28088;-74
2021/05/18 05:42:24;;;;;;;2.57;2.03;;;9.40;99.90;;;;;;488880;243;28323;-74
2021/05/18 05:44:25;;;;;;;1.97;1.80;;;9.50;99.90;;;;;;488897;243;28500;-74
2021/05/18 05:46:27;;;;;;;3.73;2.20;;;9.70;99.90;;;;;;488901;243;28454;-74
2021/05/18 05:48:28;;;;;;;3.70;2.10;;;9.70;99.90;;;;;;488882;243;27981;-73
2021/05/18 05:50:29;;;;;;;2.27;1.90;;;9.60;99.90;;;;;;488904;243;27573;-74
2021/05/18 05:52:32;;;;;;;2.77;1.97;;;9.50;99.90;;;;;;488889;243;27829;-74
2021/05/18 05:54:33;;;;;;;4.77;2.50;;;9.50;99.90;;;;;;488704;243;27817;-74
2021/05/18 05:56:33;;;;;;;4.73;3.10;;;9.60;99.90;;;;;;488658;243;27893;-74
2021/05/18 05:58:34;;;;;;;3.83;2.30;;;9.80;99.90;;;;;;488879;243;27742;-74
2021/05/18 06:00:35;;;;;;;2.90;2.30;;;10.00;99.90;;;;;;488857;243;27852;-71
2021/05/18 06:02:37;;;;;;;2.53;2.33;;;9.90;99.90;;;;;;488869;243;27985;-74
2021/05/18 06:04:38;;;;;;;3.10;2.67;;;9.90;99.90;;;;;;488857;243;28035;-73
2021/05/18 06:06:39;;;;;;;4.40;2.60;;;9.90;99.90;;;;;;488885;243;27819;-73
2021/05/18 06:08:43;;;;;;;6.10;3.10;;;10.00;99.90;;;;;;488868;243;27820;-73
2021/05/18 06:10:44;;;;;;;3.97;2.73;;;10.00;99.90;;;;;;488643;243;27816;-73
2021/05/18 06:17:41;;;;;;;3.50;2.80;;;10.10;99.90;;;;;;488870;243;28005;-73
2021/05/18 06:42:31;;;;;;;5.83;4.07;;;10.60;99.90;;;;;;488866;243;28397;-74
2021/05/18 06:47:07;;;;;;;10.87;4.20;;;10.40;99.90;;;;;;488880;243;29123;-73
2021/05/18 06:48:17;;;;;;;7.13;4.27;;;10.50;99.90;;;;;;481417;243;28175;-74
2021/05/18 06:50:32;;;;;;;6.07;3.70;;;10.60;99.90;;;;;;488879;243;28051;-73
2021/05/18 06:52:32;;;;;;;9.90;4.20;;;10.60;99.90;;;;;;488762;243;27959;-74
2021/05/18 06:54:33;;;;;;;9.07;4.30;;;10.80;99.90;;;;;;488924;243;28263;-73
2021/05/18 06:56:36;;;;;;;16.10;5.40;;;10.90;99.90;;;;;;488917;243;28308;-73
2021/05/18 07:00:43;;;;;;;9.93;4.20;;;11.00;99.90;;;;;;488841;243;28736;-73
2021/05/18 07:02:45;;;;;;;8.83;3.70;;;11.20;99.90;;;;;;495375;237;28347;-74
2021/05/18 07:04:47;;;;;;;6.73;3.50;;;11.30;99.90;;;;;;499589;237;28212;-73
2021/05/18 07:07:02;;;;;;;4.97;3.50;;;11.20;99.90;;;;;;489720;239;28891;-74
2021/05/18 07:08:55;;;;;;;7.53;4.30;;;11.20;99.90;;;;;;488756;240;28128;-73
2021/05/18 07:10:55;;;;;;;11.90;3.83;;;11.30;99.90;;;;;;493905;241;28515;-74
2021/05/18 07:12:56;;;;;;;11.90;3.57;;;11.00;99.90;;;;;;493918;241;28655;-74
2021/05/18 07:14:59;;;;;;;4.70;3.50;;;10.90;99.90;;;;;;484505;245;28946;-73
2021/05/18 07:16:59;;;;;;;3.87;3.27;;;11.10;99.90;;;;;;484478;245;28203;-72
2021/05/18 07:19:00;;;;;;;3.60;2.97;;;11.10;99.90;;;;;;484583;245;28336;-73
2021/05/18 07:21:02;;;;;;;9.03;3.83;;;11.30;99.90;;;;;;484534;245;28556;-72
2021/05/18 07:23:08;;;;;;;6.73;3.27;;;11.20;99.90;;;;;;484416;245;28537;-72
2021/05/18 07:25:04;;;;;;;5.63;3.03;;;11.00;99.90;;;;;;484369;245;28624;-73
2021/05/18 07:27:05;;;;;;;4.77;3.10;;;11.00;99.90;;;;;;484516;245;28300;-73
2021/05/18 07:29:06;;;;;;;3.13;2.40;;;11.10;99.90;;;;;;484520;245;28041;-72
2021/05/18 07:31:08;;;;;;;10.50;3.60;;;11.20;99.90;;;;;;484518;245;28183;-73
2021/05/18 07:33:09;;;;;;;6.60;4.10;;;11.20;99.90;;;;;;484528;245;28096;-73
2021/05/18 07:35:11;;;;;;;6.07;3.17;;;11.10;99.90;;;;;;484547;245;28632;-73
2021/05/18 07:37:12;;;;;;;9.30;3.50;;;11.10;99.90;;;;;;484601;245;28180;-73
2021/05/18 07:39:13;;;;;;;5.33;2.90;;;11.10;99.90;;;;;;484498;245;28299;-74
2021/05/18 07:41:14;;;;;;;8.53;3.40;;;11.10;99.90;;;;;;484590;245;28673;-75
2021/05/18 07:43:17;;;;;;;6.53;2.90;;;11.20;99.90;;;;;;484523;245;28593;-74
2021/05/18 07:45:16;;;;;;;5.63;2.80;;;11.20;99.90;;;;;;484433;245;29355;-74
2021/05/18 07:47:19;;;;;;;2.83;2.40;;;11.30;99.90;;;;;;484565;245;28462;-74
2021/05/18 07:49:36;;;;;;;8.77;3.67;;;11.40;99.90;;;;;;484537;245;28172;-73
2021/05/18 07:51:45;;;;;;;5.90;2.90;;;11.40;99.90;;;;;;484300;245;28565;-74
2021/05/18 08:05:18;;;;;;;5.20;2.80;;;10.90;99.90;;;;;;485982;245;28433;-74
2021/05/18 08:06:56;;;;;;;8.53;2.90;;;11.10;99.90;;;;;;486008;244;28632;-73
2021/05/18 08:08:57;;;;;;;9.50;2.40;;;11.20;99.90;;;;;;486071;245;28197;-74
2021/05/18 08:11:03;;;;;;;5.90;3.20;;;11.20;99.90;;;;;;486015;245;28555;-73
2021/05/18 08:13:04;;;;;;;8.50;3.10;;;11.20;99.90;;;;;;486066;245;28444;-73
2021/05/18 08:21:56;;;;;;;6.97;2.77;;;11.40;99.90;;;;;;486080;245;28432;-74
2021/05/18 08:53:04;;;;;;;6.83;2.10;;;12.10;99.90;;;;;;485993;245;28797;-75
2021/05/18 09:35:08;;;;;;;3.53;1.80;;;12.70;99.90;;;;;;477288;249;28861;-74
2021/05/18 09:48:49;;;;;;;4.63;1.87;;;12.50;99.90;;;;;;477220;249;28870;-72
2021/05/18 10:22:00;;;;;;;6.30;1.83;;;10.40;99.90;;;;;;484348;245;28402;-73
2021/05/18 10:22:41;;;;;;;2.80;1.60;;;10.90;99.90;;;;;;484379;245;28400;-73
2021/05/18 10:27:13;;;;;;;3.57;1.50;;;11.70;99.90;;;;;;484440;245;28830;-73
2021/05/18 10:35:05;;;;;;;4.17;1.77;;;12.10;99.90;;;;;;491059;241;27376;-74
2021/05/18 10:37:06;;;;;;;3.93;1.57;;;12.00;99.90;;;;;;491087;241;27829;-72
2021/05/18 10:39:07;;;;;;;1.33;1.20;;;11.90;99.90;;;;;;491123;241;28501;-73
2021/05/18 10:41:09;;;;;;;2.77;1.40;;;11.80;99.90;;;;;;491063;241;28163;-72
2021/05/18 10:43:10;;;;;;;3.37;1.30;;;11.80;99.90;;;;;;491073;241;28130;-72
2021/05/18 10:45:12;;;;;;;1.73;1.30;;;11.80;99.90;;;;;;491074;241;28189;-73
2021/05/18 10:49:20;;;;;;;1.33;1.30;;;11.80;99.90;;;;;;466869;248;28614;-73
2021/05/18 10:51:21;;;;;;;9.50;1.70;;;12.00;99.90;;;;;;467009;254;28390;-73
2021/05/18 10:53:22;;;;;;;1.90;1.40;;;12.30;99.90;;;;;;467104;254;28180;-73
2021/05/18 10:55:23;;;;;;;5.10;1.83;;;12.40;99.90;;;;;;467116;254;28758;-73
2021/05/18 10:57:24;;;;;;;11.40;1.87;;;12.50;99.90;;;;;;468667;241;28805;-72
2021/05/18 10:59:25;;;;;;;5.73;1.57;;;12.80;99.90;;;;;;454473;253;28940;-72
2021/05/18 11:01:27;;;;;;;6.70;1.93;;;12.80;99.90;;;;;;451806;262;28408;-72
2021/05/18 11:03:28;;;;;;;1.97;1.60;;;12.80;99.90;;;;;;453855;259;28514;-73
2021/05/18 11:05:29;;;;;;;3.13;1.57;;;13.00;99.90;;;;;;452511;257;28250;-72
2021/05/18 11:07:30;;;;;;;3.00;1.60;;;12.90;99.90;;;;;;456568;233;28256;-73
2021/05/18 11:09:32;;;;;;;5.40;2.00;;;12.70;99.90;;;;;;468847;251;28328;-73
2021/05/18 11:11:34;;;;;;;3.53;2.27;;;12.60;99.90;;;;;;470317;251;28230;-73
2021/05/18 11:13:34;;;;;;;3.10;1.60;;;12.50;99.90;;;;;;470159;252;28266;-72
2021/05/18 11:15:35;;;;;;;2.47;1.20;;;12.10;99.90;;;;;;470362;252;28226;-72
2021/05/18 11:17:37;;;;;;;2.60;1.40;;;11.80;99.90;;;;;;474112;233;29063;-73
2021/05/18 11:19:38;;;;;;;1.43;1.33;;;11.80;99.90;;;;;;482290;237;28782;-73
2021/05/18 11:21:42;;;;;;;4.07;1.47;;;11.90;99.90;;;;;;481856;245;28773;-73
2021/05/18 11:23:40;;;;;;;2.90;1.40;;;12.10;99.90;;;;;;481526;247;28678;-73
2021/05/18 11:25:42;;;;;;;1.90;1.30;;;12.20;99.90;;;;;;481912;245;28304;-72
2021/05/18 11:27:43;;;;;;;1.60;1.20;;;12.20;99.90;;;;;;481961;245;28323;-73
2021/05/18 11:29:44;;;;;;;1.30;1.13;;;12.40;99.90;;;;;;481995;245;28249;-73
2021/05/18 11:31:45;;;;;;;4.60;1.47;;;12.60;99.90;;;;;;481983;245;28410;-73
2021/05/18 11:33:47;;;;;;;3.17;1.77;;;12.90;99.90;;;;;;482006;245;28338;-73
2021/05/18 11:35:48;;;;;;;2.57;1.50;;;13.00;99.90;;;;;;481992;246;28538;-73
2021/05/18 11:37:49;;;;;;;2.20;1.77;;;13.40;99.90;;;;;;481945;246;28551;-75
2021/05/18 11:39:50;;;;;;;3.43;1.50;;;13.70;99.90;;;;;;465649;253;29030;-74
2021/05/18 11:41:53;;;;;;;4.50;1.83;;;13.70;99.90;;;;;;468748;253;31504;-74
2021/05/18 11:43:54;;;;;;;2.80;1.53;;;14.10;99.90;;;;;;468738;253;29418;-75
2021/05/18 11:45:54;;;;;;;3.37;1.60;;;14.30;99.90;;;;;;470814;245;29343;-72
2021/05/18 11:47:55;;;;;;;2.80;1.40;;;13.60;99.90;;;;;;471159;245;29333;-73
2021/05/18 11:49:57;;;;;;;2.57;1.53;;;12.80;99.90;;;;;;471107;250;29190;-73
2021/05/18 11:51:59;;;;;;;5.77;1.60;;;12.30;99.90;;;;;;472733;249;28961;-72
2021/05/18 11:53:59;;;;;;;1.43;1.20;;;12.20;99.90;;;;;;472742;251;28683;-72
2021/05/18 11:56:00;;;;;;;1.37;1.27;;;12.20;99.90;;;;;;472798;250;28561;-74
2021/05/18 11:58:02;;;;;;;2.90;1.50;;;12.00;99.90;;;;;;472933;249;28224;-72
2021/05/18 12:00:03;;;;;;;1.23;1.13;;;11.90;99.90;;;;;;472774;250;28294;-72
2021/05/18 12:02:05;;;;;;;1.20;1.10;;;11.50;99.90;;;;;;472829;249;28498;-72
2021/05/18 12:04:05;;;;;;;1.47;1.20;;;11.50;99.90;;;;;;472819;249;28390;-72
2021/05/18 12:06:08;;;;;;;1.20;0.90;;;;;;;;;;472801;251;28456;-72
2021/05/18 12:08:09;;;;;;;1.80;1.20;;;11.90;99.90;;;;;;479980;238;26667;-72
2021/05/18 12:10:10;;;;;;;2.03;1.30;;;12.00;99.90;;;;;;490231;243;28180;-72
2021/05/18 12:12:12;;;;;;;1.87;1.30;;;12.00;99.90;;;;;;490202;243;28355;-72
2021/05/18 12:14:13;;;;;;;3.07;1.30;;;12.00;99.90;;;;;;490203;243;28330;-73
2021/05/18 12:16:14;;;;;;;1.40;1.13;;;12.20;99.90;;;;;;490210;243;28400;-73
2021/05/18 12:18:15;;;;;;;2.57;1.40;;;12.10;99.90;;;;;;490211;243;28425;-72
2021/05/18 12:20:17;;;;;;;2.93;1.23;;;12.30;99.90;;;;;;490246;243;28332;-72
2021/05/18 12:22:18;;;;;;;1.87;1.37;;;12.20;99.90;;;;;;490245;243;28771;-72
2021/05/18 12:24:19;;;;;;;2.13;1.57;;;12.50;99.90;;;;;;490217;243;28614;-73
2021/05/18 12:26:20;;;;;;;3.23;1.40;;;12.70;99.90;;;;;;490211;243;28723;-72
2021/05/18 12:28:22;;;;;;;2.73;1.83;;;12.90;99.90;;;;;;490177;243;28297;-72
2021/05/18 12:30:23;;;;;;;2.30;1.50;;;13.00;99.90;;;;;;490189;243;28178;-72
2021/05/18 12:32:26;;;;;;;3.37;1.80;;;13.00;99.90;;;;;;490185;243;28184;-72
2021/05/18 12:34:25;;;;;;;4.13;1.47;;;13.30;99.90;;;;;;491643;239;28123;-72
2021/05/18 12:36:27;;;;;;;7.73;3.70;;;13.30;99.90;;;;;;497996;237;28539;-73
2021/05/18 12:38:28;;;;;;;3.70;2.07;;;13.70;99.90;;;;;;484992;239;28873;-72
2021/05/18 12:40:29;;;;;;;3.23;1.80;;;14.30;99.90;;;;;;477443;249;28948;-72
2021/05/18 12:42:30;;;;;;;3.27;1.50;;;14.10;99.90;;;;;;477596;248;28666;-71
2021/05/18 12:44:32;;;;;;;4.73;1.80;;;14.00;99.90;;;;;;477575;248;28882;-72
2021/05/18 12:46:33;;;;;;;3.33;1.37;;;14.10;99.90;;;;;;477616;248;28899;-73
2021/05/18 12:48:34;;;;;;;1.37;1.27;;;13.90;99.90;;;;;;481256;237;28753;-71
2021/05/18 12:50:35;;;;;;;3.00;1.70;;;13.50;99.90;;;;;;475541;250;28724;-71
2021/05/18 12:52:37;;;;;;;2.20;1.50;;;13.70;99.90;;;;;;475551;250;28425;-71
2021/05/18 12:54:38;;;;;;;3.63;1.43;;;13.70;99.90;;;;;;475546;244;28713;-72
2021/05/18 12:56:39;;;;;;;4.67;2.60;;;13.80;99.90;;;;;;475515;250;29190;-72
2021/05/18 12:58:40;;;;;;;1.67;1.10;;;13.90;99.90;;;;;;481791;242;29255;-73
2021/05/18 13:00:44;;;;;;;3.03;1.60;;;14.00;99.90;;;;;;487756;243;29274;-72
2021/05/18 13:02:43;;;;;;;1.80;1.10;;;14.10;99.90;;;;;;487631;244;29283;-75
2021/05/18 13:04:44;;;;;;;1.80;1.10;;;14.10;99.90;;;;;;487752;243;28911;-71
2021/05/18 13:06:45;;;;;;;1.37;1.00;;;14.10;99.90;;;;;;487774;243;28839;-73
2021/05/18 13:08:47;;;;;;;1.80;1.00;;;14.10;99.90;;;;;;487714;243;28831;-72
2021/05/18 13:12:49;;;;;;;4.20;0.90;;;14.20;99.90;;;;;;487759;243;28948;-72
2021/05/18 13:14:50;;;;;;;1.20;1.10;;;14.10;99.90;;;;;;487706;243;28827;-72
2021/05/18 13:16:52;;;;;;;1.40;1.20;;;14.10;99.90;;;;;;487757;243;29357;-71
2021/05/18 13:18:53;;;;;;;3.07;1.43;;;14.20;99.90;;;;;;485353;236;29257;-72
2021/05/18 13:20:54;;;;;;;2.70;1.07;;;13.90;99.90;;;;;;484320;245;28909;-73
2021/05/18 13:22:59;;;;;;;2.47;1.20;;;13.60;99.90;;;;;;484302;245;28820;-72
2021/05/18 13:26:58;;;;;;;2.00;1.00;;;12.90;99.90;;;;;;489800;241;29444;-72
2021/05/18 13:28:59;;;;;;;2.73;1.07;;;12.60;99.90;;;;;;473826;233;29423;-72
2021/05/18 13:31:00;;;;;;;0.90;0.90;;;12.50;99.90;;;;;;465542;251;29079;-73
2021/05/18 13:33:03;;;;;;;1.23;1.13;;;12.50;99.90;;;;;;462971;255;28401;-73
2021/05/18 13:35:05;;;;;;;1.00;1.00;;;12.00;99.90;;;;;;466496;255;28278;-72
2021/05/18 13:37:04;;;;;;;1.00;1.00;;;11.70;99.90;;;;;;466486;252;28820;-73
2021/05/18 13:39:05;;;;;;;1.37;1.27;;;11.70;99.90;;;;;;471798;237;28704;-73
2021/05/18 13:41:07;;;;;;;1.37;1.10;;;11.80;99.90;;;;;;471953;251;28854;-72
2021/05/18 13:43:08;;;;;;;1.20;1.10;;;12.00;99.90;;;;;;473845;249;28223;-72
2021/05/18 13:45:09;;;;;;;2.13;1.40;;;12.10;99.90;;;;;;476749;249;28163;-72
2021/05/18 13:47:10;;;;;;;4.20;1.27;;;12.20;99.90;;;;;;476748;249;28116;-72
2021/05/18 13:49:13;;;;;;;1.23;1.00;;;12.40;99.90;;;;;;476814;249;28361;-72
2021/05/18 13:51:16;;;;;;;1.00;1.00;;;12.40;99.90;;;;;;476764;249;28132;-73
2021/05/18 13:53:18;;;;;;;2.20;1.30;;;12.60;99.90;;;;;;476814;249;28782;-73
2021/05/18 13:55:18;;;;;;;2.73;1.27;;;12.80;99.90;;;;;;476808;249;28140;-72
2021/05/18 13:57:21;;;;;;;2.00;1.10;;;;;;;;;;476762;249;28361;-73
2021/05/18 13:59:22;;;;;;;1.73;1.20;;;13.10;99.90;;;;;;476719;249;27347;-72
2021/05/18 14:01:23;;;;;;;5.53;1.60;;;13.30;99.90;;;;;;476603;245;28097;-72
2021/05/18 14:03:24;;;;;;;1.30;1.20;;;13.20;99.90;;;;;;476096;246;28232;-72
2021/05/18 14:05:28;;;;;;;1.23;1.20;;;12.80;99.90;;;;;;475978;249;28454;-74
2021/05/18 14:07:41;;;;;;;2.57;1.93;;;12.50;99.90;;;;;;476526;236;28355;-73
2021/05/18 14:09:28;;;;;;;1.90;1.43;;;12.10;99.90;;;;;;479444;240;28767;-73
2021/05/18 14:11:30;;;;;;;3.60;1.87;;;12.00;99.90;;;;;;481217;243;28862;-76
2021/05/18 14:13:32;;;;;;;2.23;1.67;;;12.00;99.90;;;;;;480732;246;28323;-74
2021/05/18 14:15:32;;;;;;;2.03;1.50;;;12.20;99.90;;;;;;480831;246;28229;-75
2021/05/18 14:17:33;;;;;;;2.53;1.50;;;12.30;99.90;;;;;;480921;247;28219;-74
2021/05/18 14:19:35;;;;;;;1.70;1.60;;;12.30;99.90;;;;;;480911;247;28302;-74
2021/05/18 14:21:36;;;;;;;1.60;1.50;;;12.50;99.90;;;;;;480909;246;28759;-73
2021/05/18 14:23:46;;;;;;;2.27;1.50;;;12.70;99.90;;;;;;480936;241;28287;-73
2021/05/18 14:25:41;;;;;;;1.80;1.70;;;12.70;99.90;;;;;;480578;247;28441;-73
2021/05/18 14:27:43;;;;;;;5.00;1.60;;;12.70;99.90;;;;;;482719;239;28497;-74
2021/05/18 14:29:44;;;;;;;1.80;1.70;;;13.10;99.90;;;;;;485877;236;28442;-73
2021/05/18 14:31:45;;;;;;;1.80;1.50;;;13.10;99.90;;;;;;485395;245;28554;-72
2021/05/18 14:33:46;;;;;;;2.30;1.40;;;13.20;99.90;;;;;;485296;245;28525;-72
2021/05/18 14:35:48;;;;;;;2.27;1.70;;;13.10;99.90;;;;;;485440;245;28783;-71
2021/05/18 14:37:55;;;;;;;1.20;1.13;;;13.10;99.90;;;;;;482130;242;28925;-74
2021/05/18 14:40:03;;;;;;;3.00;1.47;;;13.00;99.90;;;;;;484731;245;29441;-73
2021/05/18 14:44:22;;;;;;;2.20;1.20;;;13.30;99.90;;;;;;485747;245;29029;-74
2021/05/18 14:55:20;;;;;;;1.10;1.00;;;12.90;99.90;;;;;;476759;249;28327;-73
2021/05/18 14:59:24;;;;;;;3.10;1.43;;;13.40;99.90;;;;;;470729;244;28596;-73
2021/05/18 15:01:25;;;;;;;1.07;1.03;;;13.30;99.90;;;;;;477310;249;28311;-73
2021/05/18 15:03:30;;;;;;;1.50;1.40;;;13.20;99.90;;;;;;472869;244;28517;-73
2021/05/18 15:05:27;;;;;;;1.73;1.33;;;13.10;99.90;;;;;;486283;240;29408;-74
2021/05/18 15:07:29;;;;;;;3.00;1.30;;;13.00;99.90;;;;;;478849;233;28140;-73
2021/05/18 15:09:30;;;;;;;1.63;1.40;;;13.10;99.90;;;;;;474711;246;29319;-74
2021/05/18 15:11:31;;;;;;;1.60;1.50;;;13.10;99.90;;;;;;467415;254;28321;-73
2021/05/18 15:13:33;;;;;;;1.43;1.40;;;13.10;99.90;;;;;;467340;249;28336;-73
2021/05/18 15:15:34;;;;;;;1.50;1.40;;;13.10;99.90;;;;;;467478;252;28225;-74